sensor_id;sensor_type;location;lat;lon;timestamp;pressure;altitude;pressure_sealevel;temperature;humidity
13836;BME280;6988;52.614;13.500;2023-03-22T00:03:14;54539.06;;;-143.77;93.12
13836;BME280;6988;52.614;13.500;2023-03-22T00:08:06;54563.69;;;-143.77;92.96
13836;BME280;6988;52.614;13.500;2023-03-22T00:12:59;54598.56;;;-143.77;93.04
13836;BME280;6988;52.614;13.500;2023-03-22T00:17:51;54573.94;;;-143.77;93.04
13836;BME280;6988;52.614;13.500;2023-03-22T00:22:44;54559.56;;;-143.77;92.70
13836;BME280;6988;52.614;13.500;2023-03-22T00:27:37;54557.53;;;-143.77;92.89
13836;BME280;6988;52.614;13.500;2023-03-22T00:32:33;54576.00;;;-143.77;92.78
13836;BME280;6988;52.614;13.500;2023-03-22T00:37:25;54573.94;;;-143.77;92.86
13836;BME280;6988;52.614;13.500;2023-03-22T00:42:25;54561.63;;;-143.77;93.08
13836;BME280;6988;52.614;13.500;2023-03-22T00:47:16;54578.03;;;-143.77;92.79
13836;BME280;6988;52.614;13.500;2023-03-22T00:52:08;54598.56;;;-143.77;92.86
13836;BME280;6988;52.614;13.500;2023-03-22T00:57:00;54588.31;;;-143.77;92.93
13836;BME280;6988;52.614;13.500;2023-03-22T01:01:54;54578.03;;;-143.77;93.09
13836;BME280;6988;52.614;13.500;2023-03-22T01:06:48;54602.66;;;-143.77;92.73
13836;BME280;6988;52.614;13.500;2023-03-22T01:11:41;54619.09;;;-143.77;92.86
13836;BME280;6988;52.614;13.500;2023-03-22T01:16:33;54621.13;;;-143.77;92.46
13836;BME280;6988;52.614;13.500;2023-03-22T01:21:27;54590.34;;;-143.77;92.26
13836;BME280;6988;52.614;13.500;2023-03-22T01:26:18;54623.19;;;-143.77;92.05
13836;BME280;6988;52.614;13.500;2023-03-22T01:31:10;54606.78;;;-143.77;91.88
13836;BME280;6988;52.614;13.500;2023-03-22T01:36:03;54621.13;;;-143.77;91.86
13836;BME280;6988;52.614;13.500;2023-03-22T01:40:59;54627.28;;;-143.77;91.88
13836;BME280;6988;52.614;13.500;2023-03-22T01:45:55;54586.25;;;-143.77;91.93
13836;BME280;6988;52.614;13.500;2023-03-22T01:51:02;54635.50;;;-143.77;91.80
13836;BME280;6988;52.614;13.500;2023-03-22T01:56:02;54621.13;;;-143.77;91.86
13836;BME280;6988;52.614;13.500;2023-03-22T02:00:56;54594.47;;;-143.77;91.82
13836;BME280;6988;52.614;13.500;2023-03-22T02:06:09;54586.25;;;-143.77;91.78
13836;BME280;6988;52.614;13.500;2023-03-22T02:11:04;54586.25;;;-143.77;92.05
13836;BME280;6988;52.614;13.500;2023-03-22T02:16:17;54596.50;;;-143.77;92.34
13836;BME280;6988;52.614;13.500;2023-03-22T02:22:11;54590.34;;;-143.77;92.41
13836;BME280;6988;52.614;13.500;2023-03-22T02:27:56;54600.63;;;-143.77;92.47
13836;BME280;6988;52.614;13.500;2023-03-22T02:33:19;54588.31;;;-143.77;92.78
13836;BME280;6988;52.614;13.500;2023-03-22T02:38:47;54582.16;;;-143.77;92.91
13836;BME280;6988;52.614;13.500;2023-03-22T02:44:00;54592.41;;;-143.77;93.23
13836;BME280;6988;52.614;13.500;2023-03-22T02:49:01;54590.34;;;-143.77;93.23
13836;BME280;6988;52.614;13.500;2023-03-22T02:54:01;54621.13;;;-143.77;93.27
13836;BME280;6988;52.614;13.500;2023-03-22T02:58:59;54598.56;;;-143.77;93.27
13836;BME280;6988;52.614;13.500;2023-03-22T03:03:58;54596.50;;;-143.77;93.32
13836;BME280;6988;52.614;13.500;2023-03-22T03:08:51;54635.50;;;-143.77;93.22
13836;BME280;6988;52.614;13.500;2023-03-22T03:13:50;54631.41;;;-143.77;93.04
13836;BME280;6988;52.614;13.500;2023-03-22T03:18:49;54610.88;;;-143.77;93.17
13836;BME280;6988;52.614;13.500;2023-03-22T03:23:53;54635.50;;;-143.77;93.36
13836;BME280;6988;52.614;13.500;2023-03-22T03:28:56;54617.03;;;-143.77;93.24
13836;BME280;6988;52.614;13.500;2023-03-22T03:33:58;54604.72;;;-143.77;93.23
13836;BME280;6988;52.614;13.500;2023-03-22T03:38:57;54623.19;;;-143.77;92.92
13836;BME280;6988;52.614;13.500;2023-03-22T03:43:53;54606.78;;;-143.77;93.02
13836;BME280;6988;52.614;13.500;2023-03-22T03:48:50;54623.19;;;-143.77;93.06
13836;BME280;6988;52.614;13.500;2023-03-22T03:53:43;54647.81;;;-143.77;93.13
13836;BME280;6988;52.614;13.500;2023-03-22T03:58:36;54639.59;;;-143.77;93.09
13836;BME280;6988;52.614;13.500;2023-03-22T04:03:29;54633.44;;;-143.77;92.99
13836;BME280;6988;52.614;13.500;2023-03-22T04:08:36;54619.09;;;-143.77;93.01
13836;BME280;6988;52.614;13.500;2023-03-22T04:13:28;54641.66;;;-143.77;92.80
13836;BME280;6988;52.614;13.500;2023-03-22T04:18:23;54641.66;;;-143.77;93.10
13836;BME280;6988;52.614;13.500;2023-03-22T04:23:18;54619.09;;;-143.77;93.00
13836;BME280;6988;52.614;13.500;2023-03-22T04:28:12;54600.63;;;-143.77;93.15
13836;BME280;6988;52.614;13.500;2023-03-22T04:33:04;54553.41;;;-143.77;93.12
13836;BME280;6988;52.614;13.500;2023-03-22T04:38:18;54651.91;;;-143.77;92.94
13836;BME280;6988;52.614;13.500;2023-03-22T04:43:11;54641.66;;;-143.77;93.04
13836;BME280;6988;52.614;13.500;2023-03-22T04:48:14;54619.09;;;-143.77;93.02
13836;BME280;6988;52.614;13.500;2023-03-22T04:53:08;54586.25;;;-143.77;93.10
13836;BME280;6988;52.614;13.500;2023-03-22T04:58:03;54578.03;;;-143.77;92.78
13836;BME280;6988;52.614;13.500;2023-03-22T05:02:56;54643.72;;;-143.77;92.81
13836;BME280;6988;52.614;13.500;2023-03-22T05:07:57;54629.34;;;-143.77;92.89
13836;BME280;6988;52.614;13.500;2023-03-22T05:12:50;54619.09;;;-143.77;92.78
13836;BME280;6988;52.614;13.500;2023-03-22T05:17:47;54614.97;;;-143.77;92.63
13836;BME280;6988;52.614;13.500;2023-03-22T05:22:39;54625.25;;;-143.77;92.48
13836;BME280;6988;52.614;13.500;2023-03-22T05:27:33;54619.09;;;-143.77;92.41
13836;BME280;6988;52.614;13.500;2023-03-22T05:32:34;54590.34;;;-143.77;92.02
13836;BME280;6988;52.614;13.500;2023-03-22T05:37:29;54623.19;;;-143.77;91.81
13836;BME280;6988;52.614;13.500;2023-03-22T05:42:22;54602.66;;;-143.77;91.37
13836;BME280;6988;52.614;13.500;2023-03-22T05:47:14;54619.09;;;-143.77;91.43
13836;BME280;6988;52.614;13.500;2023-03-22T05:52:16;54619.09;;;-143.77;91.41
13836;BME280;6988;52.614;13.500;2023-03-22T05:57:17;54578.03;;;-143.77;91.34
13836;BME280;6988;52.614;13.500;2023-03-22T06:02:09;54623.19;;;-143.77;90.55
13836;BME280;6988;52.614;13.500;2023-03-22T06:07:01;54590.34;;;-143.77;89.82
13836;BME280;6988;52.614;13.500;2023-03-22T06:12:05;54604.72;;;-143.77;89.34
13836;BME280;6988;52.614;13.500;2023-03-22T06:16:58;54584.19;;;-143.77;88.82
13836;BME280;6988;52.614;13.500;2023-03-22T06:21:50;54606.78;;;-143.77;88.53
13836;BME280;6988;52.614;13.500;2023-03-22T06:26:45;54590.34;;;-143.77;88.53
13836;BME280;6988;52.614;13.500;2023-03-22T06:31:39;54598.56;;;-143.77;88.20
13836;BME280;6988;52.614;13.500;2023-03-22T06:36:33;54614.97;;;-143.77;88.15
13836;BME280;6988;52.614;13.500;2023-03-22T06:41:32;54569.84;;;-143.77;88.04
13836;BME280;6988;52.614;13.500;2023-03-22T06:46:24;54569.84;;;-143.77;88.06
13836;BME280;6988;52.614;13.500;2023-03-22T06:51:25;54598.56;;;-143.77;88.00
13836;BME280;6988;52.614;13.500;2023-03-22T06:56:19;54614.97;;;-143.77;88.04
13836;BME280;6988;52.614;13.500;2023-03-22T07:01:15;54612.94;;;-143.77;87.95
13836;BME280;6988;52.614;13.500;2023-03-22T07:06:08;54614.97;;;-143.77;87.72
13836;BME280;6988;52.614;13.500;2023-03-22T07:11:04;54623.19;;;-143.77;87.49
13836;BME280;6988;52.614;13.500;2023-03-22T07:16:00;54584.19;;;-143.77;87.28
13836;BME280;6988;52.614;13.500;2023-03-22T07:21:05;54633.44;;;-143.77;86.68
13836;BME280;6988;52.614;13.500;2023-03-22T07:25:59;54565.72;;;-143.77;86.34
13836;BME280;6988;52.614;13.500;2023-03-22T07:31:01;54569.84;;;-143.77;86.00
13836;BME280;6988;52.614;13.500;2023-03-22T07:36:03;54555.47;;;-143.77;85.68
13836;BME280;6988;52.614;13.500;2023-03-22T07:40:55;54555.47;;;-143.77;85.54
13836;BME280;6988;52.614;13.500;2023-03-22T07:46:01;54565.72;;;-143.77;84.45
13836;BME280;6988;52.614;13.500;2023-03-22T07:51:17;54522.63;;;-143.77;84.17
13836;BME280;6988;52.614;13.500;2023-03-22T07:56:09;54508.28;;;-143.77;83.43
13836;BME280;6988;52.614;13.500;2023-03-22T08:01:04;54504.19;;;-143.77;82.57
13836;BME280;6988;52.614;13.500;2023-03-22T08:06:18;54495.97;;;-143.77;81.79
13836;BME280;6988;52.614;13.500;2023-03-22T08:11:14;54491.88;;;-143.77;81.20
13836;BME280;6988;52.614;13.500;2023-03-22T08:16:07;54477.50;;;-143.77;80.84
13836;BME280;6988;52.614;13.500;2023-03-22T08:20:59;54450.81;;;-143.77;79.16
13836;BME280;6988;52.614;13.500;2023-03-22T08:25:54;54469.28;;;-143.77;78.52
13836;BME280;6988;52.614;13.500;2023-03-22T08:30:47;54418.00;;;-143.77;77.60
13836;BME280;6988;52.614;13.500;2023-03-22T08:35:41;54452.88;;;-143.77;76.01
13836;BME280;6988;52.614;13.500;2023-03-22T08:40:34;54442.63;;;-143.77;75.19
13836;BME280;6988;52.614;13.500;2023-03-22T08:45:27;54422.09;;;-143.77;74.79
13836;BME280;6988;52.614;13.500;2023-03-22T08:50:26;54424.16;;;-143.77;74.53
13836;BME280;6988;52.614;13.500;2023-03-22T08:55:30;54418.00;;;-143.77;74.01
13836;BME280;6988;52.614;13.500;2023-03-22T09:00:36;54407.72;;;-143.77;73.34
13836;BME280;6988;52.614;13.500;2023-03-22T09:05:37;54424.16;;;-143.77;73.75
13836;BME280;6988;52.614;13.500;2023-03-22T09:10:32;54395.44;;;-143.77;72.65
13836;BME280;6988;52.614;13.500;2023-03-22T09:15:24;54393.38;;;-143.77;72.24
13836;BME280;6988;52.614;13.500;2023-03-22T09:20:33;54383.13;;;-143.77;71.28
13836;BME280;6988;52.614;13.500;2023-03-22T09:25:25;54391.31;;;-143.77;70.91
13836;BME280;6988;52.614;13.500;2023-03-22T09:30:18;54383.13;;;-143.77;70.32
13836;BME280;6988;52.614;13.500;2023-03-22T09:35:10;54344.13;;;-143.77;69.80
13836;BME280;6988;52.614;13.500;2023-03-22T09:40:15;54335.91;;;-143.77;70.72
13836;BME280;6988;52.614;13.500;2023-03-22T09:45:14;54335.91;;;-143.77;68.74
13836;BME280;6988;52.614;13.500;2023-03-22T09:50:15;54294.88;;;-143.77;68.16
13836;BME280;6988;52.614;13.500;2023-03-22T09:55:19;54292.84;;;-143.77;67.72
13836;BME280;6988;52.614;13.500;2023-03-22T10:00:17;54327.72;;;-143.77;67.28
13836;BME280;6988;52.614;13.500;2023-03-22T10:05:20;54274.38;;;-143.77;67.08
13836;BME280;6988;52.614;13.500;2023-03-22T10:10:19;54298.97;;;-143.77;66.47
13836;BME280;6988;52.614;13.500;2023-03-22T10:15:14;54315.41;;;-143.77;67.34
13836;BME280;6988;52.614;13.500;2023-03-22T10:20:23;54335.91;;;-143.77;66.12
13836;BME280;6988;52.614;13.500;2023-03-22T10:25:30;54253.84;;;-143.77;66.36
13836;BME280;6988;52.614;13.500;2023-03-22T10:30:26;54278.47;;;-143.77;66.70
13836;BME280;6988;52.614;13.500;2023-03-22T10:35:21;54266.16;;;-143.77;65.47
13836;BME280;6988;52.614;13.500;2023-03-22T10:40:18;54274.38;;;-143.77;64.90
13836;BME280;6988;52.614;13.500;2023-03-22T10:45:13;54262.06;;;-143.77;64.80
13836;BME280;6988;52.614;13.500;2023-03-22T10:50:12;54262.06;;;-143.77;64.76
13836;BME280;6988;52.614;13.500;2023-03-22T10:55:11;54253.84;;;-143.77;61.94
13836;BME280;6988;52.614;13.500;2023-03-22T11:00:06;54233.31;;;-143.77;63.57
13836;BME280;6988;52.614;13.500;2023-03-22T11:05:04;54245.63;;;-143.77;62.00
13836;BME280;6988;52.614;13.500;2023-03-22T11:10:24;54235.38;;;-143.77;61.71
13836;BME280;6988;52.614;13.500;2023-03-22T11:15:26;54221.03;;;-143.77;62.02
13836;BME280;6988;52.614;13.500;2023-03-22T11:20:19;54249.75;;;-143.77;61.26
13836;BME280;6988;52.614;13.500;2023-03-22T11:25:18;54175.88;;;-143.77;60.72
13836;BME280;6988;52.614;13.500;2023-03-22T11:30:20;54204.59;;;-143.77;59.40
13836;BME280;6988;52.614;13.500;2023-03-22T11:35:15;54196.41;;;-143.77;58.33
13836;BME280;6988;52.614;13.500;2023-03-22T11:40:16;54229.22;;;-143.77;58.37
13836;BME280;6988;52.614;13.500;2023-03-22T11:45:14;54231.28;;;-143.77;57.47
13836;BME280;6988;52.614;13.500;2023-03-22T11:50:22;54210.75;;;-143.77;57.90
13836;BME280;6988;52.614;13.500;2023-03-22T11:55:18;54186.13;;;-143.77;57.07
13836;BME280;6988;52.614;13.500;2023-03-22T12:00:16;54145.09;;;-143.77;55.94
13836;BME280;6988;52.614;13.500;2023-03-22T12:05:17;54171.78;;;-143.77;54.46
13836;BME280;6988;52.614;13.500;2023-03-22T12:10:18;54114.31;;;-143.77;53.06
13836;BME280;6988;52.614;13.500;2023-03-22T12:15:19;54147.16;;;-143.77;52.06
13836;BME280;6988;52.614;13.500;2023-03-22T12:20:20;54097.91;;;-143.77;51.58
13836;BME280;6988;52.614;13.500;2023-03-22T12:25:19;54087.66;;;-143.77;49.73
13836;BME280;6988;52.614;13.500;2023-03-22T12:30:17;54089.72;;;-143.77;49.67
13836;BME280;6988;52.614;13.500;2023-03-22T12:35:14;54052.78;;;-143.77;50.23
13836;BME280;6988;52.614;13.500;2023-03-22T12:40:21;54026.09;;;-143.77;49.47
13836;BME280;6988;52.614;13.500;2023-03-22T12:45:17;54075.34;;;-143.77;47.55
13836;BME280;6988;52.614;13.500;2023-03-22T12:50:16;54040.47;;;-143.77;47.89
13836;BME280;6988;52.614;13.500;2023-03-22T12:55:21;54022.00;;;-143.77;47.52
13836;BME280;6988;52.614;13.500;2023-03-22T13:00:15;54067.13;;;-143.77;47.49
13836;BME280;6988;52.614;13.500;2023-03-22T13:05:10;53993.28;;;-143.77;47.97
13836;BME280;6988;52.614;13.500;2023-03-22T13:16:00;54069.19;;;-143.77;46.48
13836;BME280;6988;52.614;13.500;2023-03-22T13:21:12;54005.59;;;-143.77;46.64
13836;BME280;6988;52.614;13.500;2023-03-22T13:26:14;54060.97;;;-143.77;45.12
13836;BME280;6988;52.614;13.500;2023-03-22T13:31:30;54044.56;;;-143.77;44.64
13836;BME280;6988;52.614;13.500;2023-03-22T13:36:24;54048.66;;;-143.77;45.98
13836;BME280;6988;52.614;13.500;2023-03-22T13:41:26;54077.41;;;-143.77;44.96
13836;BME280;6988;52.614;13.500;2023-03-22T13:46:48;54099.97;;;-143.77;45.72
13836;BME280;6988;52.614;13.500;2023-03-22T13:51:42;54112.28;;;-143.77;46.29
13836;BME280;6988;52.614;13.500;2023-03-22T13:56:51;54118.44;;;-143.77;46.47
13836;BME280;6988;52.614;13.500;2023-03-22T14:01:50;54118.44;;;-143.77;46.47
13836;BME280;6988;52.614;13.500;2023-03-22T14:06:51;54159.47;;;-143.77;47.27
13836;BME280;6988;52.614;13.500;2023-03-22T14:11:50;54151.25;;;-143.77;47.66
13836;BME280;6988;52.614;13.500;2023-03-22T14:16:48;54120.47;;;-143.77;47.74
13836;BME280;6988;52.614;13.500;2023-03-22T14:21:48;54126.63;;;-143.77;48.16
13836;BME280;6988;52.614;13.500;2023-03-22T14:26:46;54093.81;;;-143.77;48.22
13836;BME280;6988;52.614;13.500;2023-03-22T14:31:42;54075.34;;;-143.77;47.15
13836;BME280;6988;52.614;13.500;2023-03-22T14:36:38;54034.31;;;-143.77;46.81
13836;BME280;6988;52.614;13.500;2023-03-22T14:41:32;54110.22;;;-143.77;45.72
13836;BME280;6988;52.614;13.500;2023-03-22T14:46:31;54106.13;;;-143.77;46.16
13836;BME280;6988;52.614;13.500;2023-03-22T14:51:30;54093.81;;;-143.77;46.41
13836;BME280;6988;52.614;13.500;2023-03-22T14:56:29;54075.34;;;-143.77;46.82
13836;BME280;6988;52.614;13.500;2023-03-22T15:01:28;54159.47;;;-143.77;46.54
13836;BME280;6988;52.614;13.500;2023-03-22T15:06:20;54184.09;;;-143.77;46.68
13836;BME280;6988;52.614;13.500;2023-03-22T15:11:15;54106.13;;;-143.77;46.43
13836;BME280;6988;52.614;13.500;2023-03-22T15:16:17;54167.66;;;-143.77;46.88
13836;BME280;6988;52.614;13.500;2023-03-22T15:21:10;54169.72;;;-143.77;47.59
13836;BME280;6988;52.614;13.500;2023-03-22T15:26:07;54175.88;;;-143.77;48.07
13836;BME280;6988;52.614;13.500;2023-03-22T15:31:04;54163.56;;;-143.77;48.58
13836;BME280;6988;52.614;13.500;2023-03-22T15:35:57;54159.47;;;-143.77;48.95
13836;BME280;6988;52.614;13.500;2023-03-22T15:40:50;54192.28;;;-143.77;50.14
13836;BME280;6988;52.614;13.500;2023-03-22T15:50:51;54184.09;;;-143.77;49.04
13836;BME280;6988;52.614;13.500;2023-03-22T15:55:43;54159.47;;;-143.77;49.51
13836;BME280;6988;52.614;13.500;2023-03-22T16:00:37;54194.34;;;-143.77;48.97
13836;BME280;6988;52.614;13.500;2023-03-22T16:05:30;54173.81;;;-143.77;48.22
13836;BME280;6988;52.614;13.500;2023-03-22T16:10:25;54184.09;;;-143.77;48.29
13836;BME280;6988;52.614;13.500;2023-03-22T16:15:20;54182.03;;;-143.77;48.35
13836;BME280;6988;52.614;13.500;2023-03-22T16:20:13;54208.72;;;-143.77;48.59
13836;BME280;6988;52.614;13.500;2023-03-22T16:25:10;54182.03;;;-143.77;49.42
13836;BME280;6988;52.614;13.500;2023-03-22T16:30:08;54227.16;;;-143.77;49.68
13836;BME280;6988;52.614;13.500;2023-03-22T16:35:00;54231.28;;;-143.77;50.19
13836;BME280;6988;52.614;13.500;2023-03-22T16:39:52;54241.53;;;-143.77;49.85
13836;BME280;6988;52.614;13.500;2023-03-22T16:44:46;54243.59;;;-143.77;49.96
13836;BME280;6988;52.614;13.500;2023-03-22T16:49:40;54216.91;;;-143.77;49.50
13836;BME280;6988;52.614;13.500;2023-03-22T16:54:31;54233.31;;;-143.77;49.28
13836;BME280;6988;52.614;13.500;2023-03-22T16:59:23;54257.94;;;-143.77;49.45
13836;BME280;6988;52.614;13.500;2023-03-22T17:04:15;54227.16;;;-143.77;49.60
13836;BME280;6988;52.614;13.500;2023-03-22T17:09:08;54233.31;;;-143.77;49.89
13836;BME280;6988;52.614;13.500;2023-03-22T17:14:00;54278.47;;;-143.77;50.18
13836;BME280;6988;52.614;13.500;2023-03-22T17:18:52;54278.47;;;-143.77;51.29
13836;BME280;6988;52.614;13.500;2023-03-22T17:23:47;54253.84;;;-143.77;51.75
13836;BME280;6988;52.614;13.500;2023-03-22T17:28:40;54249.75;;;-143.77;51.90
13836;BME280;6988;52.614;13.500;2023-03-22T17:33:33;54264.09;;;-143.77;52.96
13836;BME280;6988;52.614;13.500;2023-03-22T17:38:26;54278.47;;;-143.77;52.80
13836;BME280;6988;52.614;13.500;2023-03-22T17:43:18;54294.88;;;-143.77;51.72
13836;BME280;6988;52.614;13.500;2023-03-22T17:48:11;54276.41;;;-143.77;52.16
13836;BME280;6988;52.614;13.500;2023-03-22T17:53:05;54303.09;;;-143.77;52.04
13836;BME280;6988;52.614;13.500;2023-03-22T17:57:58;54280.53;;;-143.77;52.07
13836;BME280;6988;52.614;13.500;2023-03-22T18:02:51;54340.03;;;-143.77;52.46
13836;BME280;6988;52.614;13.500;2023-03-22T18:07:45;54290.78;;;-143.77;52.67
13836;BME280;6988;52.614;13.500;2023-03-22T18:12:40;54292.84;;;-143.77;53.23
13836;BME280;6988;52.614;13.500;2023-03-22T18:17:32;54296.94;;;-143.77;53.21
13836;BME280;6988;52.614;13.500;2023-03-22T18:22:23;54296.94;;;-143.77;53.51
13836;BME280;6988;52.614;13.500;2023-03-22T18:27:16;54311.28;;;-143.77;54.04
13836;BME280;6988;52.614;13.500;2023-03-22T18:32:08;54296.94;;;-143.77;54.13
13836;BME280;6988;52.614;13.500;2023-03-22T18:37:00;54350.28;;;-143.77;54.73
13836;BME280;6988;52.614;13.500;2023-03-22T18:41:52;54315.41;;;-143.77;54.59
13836;BME280;6988;52.614;13.500;2023-03-22T18:46:45;54280.53;;;-143.77;53.86
13836;BME280;6988;52.614;13.500;2023-03-22T18:51:38;54321.56;;;-143.77;53.01
13836;BME280;6988;52.614;13.500;2023-03-22T18:56:30;54315.41;;;-143.77;53.33
13836;BME280;6988;52.614;13.500;2023-03-22T19:01:23;54364.66;;;-143.77;53.61
13836;BME280;6988;52.614;13.500;2023-03-22T19:06:18;54323.59;;;-143.77;53.99
13836;BME280;6988;52.614;13.500;2023-03-22T19:11:11;54307.19;;;-143.77;54.24
13836;BME280;6988;52.614;13.500;2023-03-22T19:16:09;54298.97;;;-143.77;54.84
13836;BME280;6988;52.614;13.500;2023-03-22T19:21:02;54346.19;;;-143.77;55.37
13836;BME280;6988;52.614;13.500;2023-03-22T19:25:56;54319.50;;;-143.77;56.07
13836;BME280;6988;52.614;13.500;2023-03-22T19:30:51;54315.41;;;-143.77;56.25
13836;BME280;6988;52.614;13.500;2023-03-22T19:35:44;54307.19;;;-143.77;57.17
13836;BME280;6988;52.614;13.500;2023-03-22T19:40:36;54344.13;;;-143.77;57.45
13836;BME280;6988;52.614;13.500;2023-03-22T19:45:29;54348.22;;;-143.77;57.88
13836;BME280;6988;52.614;13.500;2023-03-22T19:50:21;54356.44;;;-143.77;58.08
13836;BME280;6988;52.614;13.500;2023-03-22T19:55:14;54337.97;;;-143.77;58.15
13836;BME280;6988;52.614;13.500;2023-03-22T20:00:09;54364.66;;;-143.77;58.58
13836;BME280;6988;52.614;13.500;2023-03-22T20:05:07;54356.44;;;-143.77;58.73
13836;BME280;6988;52.614;13.500;2023-03-22T20:09:59;54368.75;;;-143.77;58.84
13836;BME280;6988;52.614;13.500;2023-03-22T20:14:51;54354.38;;;-143.77;59.01
13836;BME280;6988;52.614;13.500;2023-03-22T20:19:43;54360.53;;;-143.77;59.22
13836;BME280;6988;52.614;13.500;2023-03-22T20:24:36;54346.19;;;-143.77;59.06
13836;BME280;6988;52.614;13.500;2023-03-22T20:29:30;54344.13;;;-143.77;58.62
13836;BME280;6988;52.614;13.500;2023-03-22T20:34:22;54348.22;;;-143.77;58.14
13836;BME280;6988;52.614;13.500;2023-03-22T20:39:14;54374.91;;;-143.77;58.51
13836;BME280;6988;52.614;13.500;2023-03-22T20:44:09;54368.75;;;-143.77;57.93
13836;BME280;6988;52.614;13.500;2023-03-22T20:49:02;54340.03;;;-143.77;58.66
13836;BME280;6988;52.614;13.500;2023-03-22T20:53:54;54356.44;;;-143.77;58.53
13836;BME280;6988;52.614;13.500;2023-03-22T20:58:49;54395.44;;;-143.77;58.50
13836;BME280;6988;52.614;13.500;2023-03-22T21:03:43;54385.16;;;-143.77;58.84
13836;BME280;6988;52.614;13.500;2023-03-22T21:08:36;54360.53;;;-143.77;58.91
13836;BME280;6988;52.614;13.500;2023-03-22T21:13:29;54385.16;;;-143.77;59.07
13836;BME280;6988;52.614;13.500;2023-03-22T21:18:21;54391.31;;;-143.77;59.36
13836;BME280;6988;52.614;13.500;2023-03-22T21:23:14;54374.91;;;-143.77;58.84
13836;BME280;6988;52.614;13.500;2023-03-22T21:28:06;54383.13;;;-143.77;59.29
13836;BME280;6988;52.614;13.500;2023-03-22T21:32:59;54405.69;;;-143.77;59.11
13836;BME280;6988;52.614;13.500;2023-03-22T21:37:51;54372.84;;;-143.77;59.31
13836;BME280;6988;52.614;13.500;2023-03-22T21:42:48;54397.47;;;-143.77;59.64
13836;BME280;6988;52.614;13.500;2023-03-22T21:47:43;54352.34;;;-143.77;59.89
13836;BME280;6988;52.614;13.500;2023-03-22T21:52:37;54379.00;;;-143.77;59.87
13836;BME280;6988;52.614;13.500;2023-03-22T21:57:30;54385.16;;;-143.77;59.95
13836;BME280;6988;52.614;13.500;2023-03-22T22:02:23;54395.44;;;-143.77;60.22
13836;BME280;6988;52.614;13.500;2023-03-22T22:07:16;54376.97;;;-143.77;60.14
13836;BME280;6988;52.614;13.500;2023-03-22T22:12:09;54387.22;;;-143.77;60.45
13836;BME280;6988;52.614;13.500;2023-03-22T22:17:01;54389.28;;;-143.77;60.31
13836;BME280;6988;52.614;13.500;2023-03-22T22:21:55;54368.75;;;-143.77;60.54
13836;BME280;6988;52.614;13.500;2023-03-22T22:26:47;54401.56;;;-143.77;60.88
13836;BME280;6988;52.614;13.500;2023-03-22T22:31:39;54389.28;;;-143.77;61.26
13836;BME280;6988;52.614;13.500;2023-03-22T22:36:33;54389.28;;;-143.77;61.21
13836;BME280;6988;52.614;13.500;2023-03-22T22:41:27;54401.56;;;-143.77;61.13
13836;BME280;6988;52.614;13.500;2023-03-22T23:04:39;54409.78;;;-143.77;62.30
13836;BME280;6988;52.614;13.500;2023-03-22T23:09:31;54407.72;;;-143.77;62.51
13836;BME280;6988;52.614;13.500;2023-03-22T23:14:22;54413.88;;;-143.77;62.72
13836;BME280;6988;52.614;13.500;2023-03-22T23:19:19;54403.63;;;-143.77;62.91
13836;BME280;6988;52.614;13.500;2023-03-22T23:24:17;54399.53;;;-143.77;62.72
13836;BME280;6988;52.614;13.500;2023-03-22T23:29:09;54426.19;;;-143.77;62.11
13836;BME280;6988;52.614;13.500;2023-03-22T23:34:01;54397.47;;;-143.77;62.60
13836;BME280;6988;52.614;13.500;2023-03-22T23:38:56;54422.09;;;-143.77;62.78
13836;BME280;6988;52.614;13.500;2023-03-22T23:43:51;54401.56;;;-143.77;62.34
13836;BME280;6988;52.614;13.500;2023-03-22T23:48:44;54389.28;;;-143.77;62.80
13836;BME280;6988;52.614;13.500;2023-03-22T23:53:37;54415.94;;;-143.77;62.42
13836;BME280;6988;52.614;13.500;2023-03-22T23:58:29;54411.84;;;-143.77;62.65
